createdAt,value
2022-10-18T03:01:47.146Z,101944.84
2022-10-18T03:04:14.540Z,101959.78
2022-10-18T03:06:41.950Z,101951.78
2022-10-18T03:09:09.927Z,101942.97
2022-10-18T03:11:37.061Z,101940.31
2022-10-18T03:14:04.128Z,101944.78
2022-10-18T03:16:31.690Z,101945.56
2022-10-18T03:18:58.914Z,101929.56
2022-10-18T03:21:25.954Z,101922.63
2022-10-18T03:23:53.026Z,101941.16
2022-10-18T03:26:21.715Z,101954.44
2022-10-18T03:28:48.895Z,101943.84
2022-10-18T03:31:16.056Z,101941.06
2022-10-18T03:33:43.355Z,101960.59
2022-10-18T03:36:10.490Z,101949.97
2022-10-18T03:38:37.581Z,101957.91
2022-10-18T03:41:04.734Z,101948.19
2022-10-18T03:43:32.041Z,101940.22
2022-10-18T03:45:59.363Z,101966.66
2022-10-18T03:48:26.449Z,101961.38
2022-10-18T03:50:53.704Z,101974.56
2022-10-18T03:53:20.958Z,101956.91
2022-10-18T03:55:55.856Z,101945.28
2022-10-18T03:58:24.013Z,101952.44
2022-10-18T04:00:55.754Z,101967.47
2022-10-18T04:03:23.651Z,101965.63
2022-10-18T04:05:51.161Z,101969.16
2022-10-18T04:08:21.119Z,101964.72
2022-10-18T04:10:52.800Z,101965.69
2022-10-18T04:13:19.885Z,101965.69
2022-10-18T04:15:46.959Z,101966.47
2022-10-18T04:18:14.129Z,101963.84
2022-10-18T04:20:41.139Z,101973.56
2022-10-18T04:23:08.329Z,101962.81
2022-10-18T04:25:35.392Z,101960.13
2022-10-18T04:28:02.513Z,101953.13
2022-10-18T04:30:29.610Z,101980.56
2022-10-18T04:32:57.005Z,101966.34
2022-10-18T04:35:26.192Z,101955.78
2022-10-18T04:37:53.295Z,101970.00
2022-10-18T04:40:20.924Z,101968.22
2022-10-18T04:42:48.100Z,101968.16
2022-10-18T04:45:15.202Z,101960.16
2022-10-18T04:47:42.259Z,101956.59
2022-10-18T04:50:09.508Z,101964.56
2022-10-18T04:52:36.614Z,101969.81
2022-10-18T04:55:04.049Z,101949.44
2022-10-18T04:57:31.402Z,101977.75
2022-10-18T04:59:59.500Z,101957.44
2022-10-18T05:02:26.800Z,101968.13
2022-10-18T05:04:53.912Z,101942.59
2022-10-18T05:07:21.074Z,101949.63
2022-10-18T05:09:48.114Z,101962.13
2022-10-18T05:12:15.190Z,101960.38
2022-10-18T05:14:42.343Z,101960.53
2022-10-18T05:17:09.471Z,101933.28
2022-10-18T05:19:36.595Z,101943.03
2022-10-18T05:22:03.628Z,101953.72
2022-10-18T05:24:30.720Z,101961.75
2022-10-18T05:26:58.602Z,101959.94
2022-10-18T05:31:57.865Z,101967.69
2022-10-18T05:34:27.449Z,101969.41
2022-10-18T05:36:54.563Z,101966.75
2022-10-18T05:39:21.725Z,101960.34
2022-10-18T05:41:48.962Z,101964.94
2022-10-18T05:44:16.179Z,101969.38
2022-10-18T05:46:43.297Z,101965.63
2022-10-18T05:49:14.055Z,101912.47
2022-10-18T05:51:41.279Z,101953.31
2022-10-18T05:54:09.650Z,101951.47
2022-10-18T05:56:36.721Z,101938.16
2022-10-18T05:59:12.247Z,101939.91
2022-10-18T06:01:41.358Z,101970.81
2022-10-18T06:04:10.351Z,101972.53
2022-10-18T06:06:38.554Z,101970.75
2022-10-18T06:09:07.955Z,101946.91
2022-10-18T06:11:37.127Z,101959.25
2022-10-18T06:14:05.199Z,101967.09
2022-10-18T06:16:32.846Z,101963.63
2022-10-18T06:19:00.272Z,101964.50
2022-10-18T06:21:28.183Z,101962.75
2022-10-18T06:23:58.123Z,101955.66
2022-10-18T06:26:27.289Z,101953.88
2022-10-18T06:28:54.479Z,101959.22
2022-10-18T06:31:21.586Z,101955.69
2022-10-18T06:33:49.402Z,101929.13
2022-10-18T06:36:18.883Z,101963.75
2022-10-18T06:38:46.276Z,101962.78
2022-10-18T06:41:14.003Z,101958.50
2022-10-18T06:43:41.268Z,101969.97
2022-10-18T06:46:09.256Z,101943.44
2022-10-18T06:48:37.069Z,101955.06
2022-10-18T06:51:06.367Z,101956.84
2022-10-18T06:53:43.669Z,101941.03
2022-10-18T06:56:15.851Z,101971.22
2022-10-18T06:58:43.013Z,101955.41
2022-10-18T07:01:16.190Z,101951.19
2022-10-18T07:03:44.146Z,101951.16
2022-10-18T07:06:13.817Z,101950.22
2022-10-18T07:08:41.513Z,101914.72
2022-10-18T07:11:13.954Z,101954.81
2022-10-18T07:13:41.162Z,101952.34
2022-10-18T07:16:14.114Z,101953.28
2022-10-18T07:18:46.617Z,101962.25
2022-10-18T07:21:18.542Z,101957.78
2022-10-18T07:23:46.984Z,101955.19
2022-10-18T07:26:26.127Z,101938.44
2022-10-18T07:28:58.165Z,101930.63
2022-10-18T07:31:25.618Z,101957.19
2022-10-18T07:33:53.604Z,101957.16
2022-10-18T07:36:22.310Z,101956.31
2022-10-18T07:38:50.196Z,101954.56
2022-10-18T07:41:17.334Z,101966.81
2022-10-18T07:43:49.311Z,101962.53
2022-10-18T07:46:16.606Z,101976.69
2022-10-18T07:48:44.112Z,101973.16
2022-10-18T07:51:11.980Z,101980.47
2022-10-18T07:53:39.366Z,101971.81
2022-10-18T07:56:11.734Z,101966.56
2022-10-18T07:58:38.829Z,101954.31
2022-10-18T08:01:07.857Z,101965.94
2022-10-18T08:03:35.466Z,101986.53
2022-10-18T08:06:04.002Z,101973.31
2022-10-18T08:08:31.371Z,101966.16
2022-10-18T08:11:15.003Z,101990.06
2022-10-18T08:13:42.913Z,101985.59
2022-10-18T08:16:15.726Z,101964.31
2022-10-18T08:18:43.196Z,101977.69
2022-10-18T08:21:12.178Z,101968.94
2022-10-18T08:23:40.433Z,101957.50
2022-10-18T08:26:10.201Z,101977.97
2022-10-18T08:28:37.944Z,101975.44
2022-10-18T08:31:12.034Z,101976.34
2022-10-18T08:33:40.019Z,101973.84
2022-10-18T08:36:09.170Z,101971.28
2022-10-18T08:38:38.408Z,101968.75
2022-10-18T08:41:33.315Z,101969.84
2022-10-18T08:44:09.559Z,101973.34
2022-10-18T08:46:39.289Z,101964.66
2022-10-18T08:49:07.377Z,101954.00
2022-10-18T08:51:48.863Z,101969.09
2022-10-18T08:54:44.782Z,101975.34
2022-10-18T08:57:18.353Z,101963.91
2022-10-18T08:59:45.966Z,101967.50
2022-10-18T09:02:31.645Z,101976.31
2022-10-18T09:05:32.078Z,101979.91
2022-10-18T09:08:18.506Z,101988.81
2022-10-18T09:11:09.800Z,101978.34
2022-10-18T09:13:59.075Z,101974.81
2022-10-18T09:16:40.033Z,101973.94
2022-10-18T09:19:12.512Z,101971.31
2022-10-18T09:21:50.897Z,101966.91
2022-10-18T09:24:37.388Z,101959.91
2022-10-18T09:27:12.366Z,101964.34
2022-10-18T09:30:09.241Z,101962.69
2022-10-18T09:32:52.073Z,101934.44
2022-10-18T09:35:24.858Z,101954.78
2022-10-18T09:37:59.742Z,101957.44
2022-10-18T09:40:30.508Z,101952.16
2022-10-18T09:43:06.796Z,101897.34
2022-10-18T09:45:40.695Z,101931.81
2022-10-18T09:48:17.622Z,101912.38
2022-10-18T09:50:55.165Z,101949.50
2022-10-18T09:53:46.204Z,101939.81
2022-10-18T09:56:20.452Z,101941.56
2022-10-18T09:58:51.554Z,101913.25
2022-10-18T10:01:25.399Z,101928.25
2022-10-18T10:03:53.083Z,101924.69
2022-10-18T10:06:25.015Z,101933.50
2022-10-18T10:09:05.199Z,101931.66
2022-10-18T10:11:38.896Z,101927.25
2022-10-18T10:14:23.771Z,101913.91
2022-10-18T10:17:03.485Z,101914.81
2022-10-18T10:19:38.346Z,101907.69
2022-10-18T10:22:14.393Z,101913.81
2022-10-18T10:24:53.919Z,101904.97
2022-10-18T10:27:34.092Z,101889.81
2022-10-18T10:30:21.338Z,101875.63
2022-10-18T10:32:52.068Z,101898.38
2022-10-18T10:35:53.211Z,101898.38
2022-10-18T10:38:28.668Z,101903.63
2022-10-18T10:40:56.816Z,101885.06
2022-10-18T10:43:39.219Z,101899.19
2022-10-18T10:46:13.689Z,101900.97
2022-10-18T10:48:46.793Z,101902.69
2022-10-18T10:51:16.473Z,101889.41
2022-10-18T10:53:53.146Z,101863.69
2022-10-18T10:56:27.530Z,101880.38
2022-10-18T10:58:58.343Z,101890.03
2022-10-18T11:01:32.499Z,101859.00
2022-10-18T11:04:02.970Z,101858.00
2022-10-18T11:06:49.009Z,101873.56
2022-10-18T11:09:26.894Z,101873.56
2022-10-18T11:12:21.709Z,101869.09
2022-10-18T11:15:00.060Z,101838.84
2022-10-18T11:17:39.761Z,101856.34
2022-10-18T11:20:12.778Z,101850.06
2022-10-18T11:23:12.723Z,101849.97
2022-10-18T11:26:06.096Z,101844.66
2022-10-18T11:28:36.037Z,101844.47
2022-10-18T11:31:11.488Z,101823.91
2022-10-18T11:34:10.612Z,101828.25
2022-10-18T11:37:09.672Z,101824.84
2022-10-18T11:40:14.770Z,101820.41
2022-10-18T11:43:14.148Z,101811.69
2022-10-18T11:46:12.592Z,101816.19
2022-10-18T11:48:48.414Z,101802.97
2022-10-18T11:51:56.311Z,101800.31
2022-10-18T11:55:02.504Z,101791.34
2022-10-18T11:57:56.884Z,101801.56
2022-10-18T12:00:39.452Z,101775.56
2022-10-18T12:03:15.624Z,101767.50
2022-10-18T12:05:46.328Z,101758.47
2022-10-18T12:08:17.638Z,101770.25
2022-10-18T12:11:04.418Z,101747.13
2022-10-18T12:13:54.079Z,101762.88
2022-10-18T12:16:49.259Z,101764.28
2022-10-18T12:19:23.725Z,101756.81
2022-10-18T12:22:00.641Z,101742.94
2022-10-18T12:24:30.560Z,101750.88
2022-10-18T12:27:00.546Z,101750.66
2022-10-18T12:29:30.731Z,101753.91
2022-10-18T12:32:01.334Z,101746.38
2022-10-18T12:34:53.322Z,101747.25
2022-10-18T12:37:39.111Z,101701.41
2022-10-18T12:40:22.092Z,101696.16
2022-10-18T12:42:52.776Z,101731.28
2022-10-18T12:45:33.619Z,101720.72
2022-10-18T12:48:08.873Z,101723.44
2022-10-18T12:50:42.503Z,101709.53
2022-10-18T12:53:16.494Z,101719.94
2022-10-18T12:55:48.342Z,101695.28
2022-10-18T12:58:20.412Z,101716.44
2022-10-18T13:00:48.303Z,101706.00
2022-10-18T13:03:18.803Z,101695.63
2022-10-18T13:05:54.494Z,101694.41
2022-10-18T13:08:34.657Z,101699.25
2022-10-18T13:11:09.959Z,101693.22
2022-10-18T13:13:56.444Z,101709.38
2022-10-18T13:16:30.490Z,101696.78
2022-10-18T13:19:04.747Z,101678.09
2022-10-18T13:21:41.170Z,101700.25
2022-10-18T13:24:33.353Z,101687.06
2022-10-18T13:27:37.177Z,101695.34
2022-10-18T13:30:38.528Z,101699.16
2022-10-18T13:33:32.077Z,101681.59
2022-10-18T13:36:22.648Z,101661.16
2022-10-18T13:39:04.584Z,101675.25
2022-10-18T13:41:56.517Z,101669.69
2022-10-18T13:44:32.069Z,101673.63
2022-10-18T13:46:59.132Z,101672.47
2022-10-18T13:53:29.697Z,101645.22
2022-10-18T13:56:08.845Z,101666.66
2022-10-18T13:59:20.066Z,101668.56
2022-10-18T14:01:53.441Z,101666.97
2022-10-18T14:04:29.585Z,101668.16
2022-10-18T14:07:02.617Z,101657.50
2022-10-18T14:09:44.346Z,101659.31
2022-10-18T14:12:38.783Z,101651.09
2022-10-18T14:15:16.383Z,101630.94
2022-10-18T14:17:52.932Z,101655.38
2022-10-18T14:20:29.871Z,101648.69
2022-10-18T14:23:23.468Z,101643.03
2022-10-18T14:25:50.604Z,101645.81
2022-10-18T14:28:31.306Z,101616.63
2022-10-18T14:31:15.486Z,101636.00
2022-10-18T14:33:57.055Z,101652.03
2022-10-18T14:36:27.297Z,101631.81
2022-10-18T14:39:01.731Z,101610.09
2022-10-18T14:41:28.579Z,101638.25
2022-10-18T14:44:14.299Z,101643.78
2022-10-18T14:47:02.445Z,101632.47
2022-10-18T14:49:30.324Z,101624.88
2022-10-18T14:51:59.491Z,101626.88
2022-10-18T14:54:36.658Z,101625.25
2022-10-18T14:57:07.517Z,101621.00
2022-10-18T14:59:42.920Z,101616.03
2022-10-18T15:02:16.394Z,101601.16
2022-10-18T15:04:55.537Z,101623.03
2022-10-18T15:07:23.290Z,101606.03
2022-10-18T15:09:50.970Z,101598.16
2022-10-18T15:12:18.942Z,101608.00
2022-10-18T15:14:47.059Z,101602.44
2022-10-18T15:17:24.797Z,101597.13
2022-10-18T15:20:20.322Z,101605.19
2022-10-18T15:22:50.040Z,101600.06
2022-10-18T15:25:36.033Z,101591.56
2022-10-18T15:28:03.144Z,101605.06
2022-10-18T15:30:39.286Z,101598.06
2022-10-18T15:33:11.292Z,101600.84
2022-10-18T15:35:39.774Z,101585.94
2022-10-18T15:38:25.482Z,101586.75
2022-10-18T15:40:53.754Z,101594.91
2022-10-18T15:43:24.016Z,101592.50
2022-10-18T15:46:06.904Z,101583.72
2022-10-18T15:48:36.054Z,101570.53
2022-10-18T15:51:06.702Z,101576.59
2022-10-18T15:53:46.114Z,101553.59
2022-10-18T15:56:40.411Z,101572.78
2022-10-18T15:59:26.648Z,101563.97
2022-10-18T16:01:56.148Z,101575.06
2022-10-18T16:04:31.620Z,101585.94
2022-10-18T16:07:00.224Z,101556.94
2022-10-18T16:09:29.141Z,101576.06
2022-10-18T16:11:58.445Z,101562.00
2022-10-18T16:14:26.790Z,101570.06
2022-10-18T16:17:02.171Z,101561.16
2022-10-18T16:19:29.833Z,101561.16
2022-10-18T16:21:57.948Z,101542.84
2022-10-18T16:24:27.328Z,101561.38
2022-10-18T16:26:54.451Z,101567.56
2022-10-18T16:29:28.848Z,101568.59
2022-10-18T16:31:58.430Z,101565.88
2022-10-18T16:34:29.691Z,101569.63
2022-10-18T16:36:56.757Z,101557.50
2022-10-18T16:39:24.102Z,101568.06
2022-10-18T16:41:51.795Z,101556.78
2022-10-18T16:44:19.418Z,101566.59
2022-10-18T16:46:49.908Z,101555.31
2022-10-18T16:49:24.133Z,101573.97
2022-10-18T16:51:52.989Z,101566.13
2022-10-18T16:54:20.100Z,101548.72
2022-10-18T16:56:48.139Z,101548.84
2022-10-18T16:59:29.060Z,101566.63
2022-10-18T17:01:56.435Z,101548.38
2022-10-18T17:04:23.584Z,101567.72
2022-10-18T17:06:52.368Z,101569.56
2022-10-18T17:09:19.410Z,101566.25
2022-10-18T17:11:46.435Z,101537.38
2022-10-18T17:14:13.480Z,101557.72
2022-10-18T17:16:40.514Z,101565.78
2022-10-18T17:19:10.762Z,101571.28
2022-10-18T17:21:37.990Z,101576.78
2022-10-18T17:24:06.349Z,101568.09
2022-10-18T17:26:34.133Z,101563.81
2022-10-18T17:29:05.257Z,101567.44
2022-10-18T17:31:32.995Z,101577.31
2022-10-18T17:34:02.114Z,101578.31
2022-10-18T17:36:31.251Z,101565.28
2022-10-18T17:38:58.961Z,101578.63
2022-10-18T17:41:26.375Z,101574.25
2022-10-18T17:43:53.476Z,101567.28
2022-10-18T17:46:20.742Z,101589.41
2022-10-18T17:48:47.930Z,101578.84
2022-10-18T17:51:17.308Z,101590.41
2022-10-18T17:53:46.884Z,101559.72
2022-10-18T17:56:15.685Z,101567.75
2022-10-18T17:58:48.268Z,101572.25
2022-10-18T18:01:21.889Z,101591.69
2022-10-18T18:03:49.490Z,101597.09
2022-10-18T18:06:19.415Z,101583.09
2022-10-18T18:08:48.188Z,101606.97
2022-10-18T18:11:16.218Z,101595.59
2022-10-18T18:13:43.491Z,101581.56
2022-10-18T18:16:20.059Z,101597.50
2022-10-18T18:18:53.553Z,101600.31
2022-10-18T18:21:21.473Z,101583.72
2022-10-18T18:23:49.753Z,101617.22
2022-10-18T18:26:18.369Z,101587.34
2022-10-18T18:28:45.672Z,101582.13
2022-10-18T18:31:24.889Z,101614.69
2022-10-18T18:33:54.348Z,101594.53
2022-10-18T18:36:22.260Z,101590.16
2022-10-18T18:38:55.448Z,101613.97
2022-10-18T18:41:26.367Z,101611.41
2022-10-18T18:43:55.963Z,101609.66
2022-10-18T18:46:24.300Z,101590.38
2022-10-18T18:48:51.535Z,101581.56
2022-10-18T18:51:21.113Z,101608.00
2022-10-18T18:53:49.088Z,101620.47
2022-10-18T18:56:18.962Z,101598.44
2022-10-18T18:58:46.655Z,101607.28
2022-10-18T19:01:19.761Z,101622.31
2022-10-18T19:03:49.484Z,101621.50
2022-10-18T19:06:20.226Z,101615.31
2022-10-18T19:08:48.130Z,101617.09
2022-10-18T19:11:21.482Z,101615.38
2022-10-18T19:13:49.923Z,101627.75
2022-10-18T19:16:26.164Z,101624.25
2022-10-18T19:19:08.280Z,101608.41
2022-10-18T19:21:38.134Z,101619.00
2022-10-18T19:24:06.136Z,101615.47
2022-10-18T19:26:37.386Z,101607.53
2022-10-18T19:29:11.125Z,101598.75
2022-10-18T19:31:39.312Z,101615.53
2022-10-18T19:34:08.854Z,101572.41
2022-10-18T19:36:36.635Z,101609.34
2022-10-18T19:39:04.635Z,101616.44
2022-10-18T19:41:31.915Z,101612.06
2022-10-18T19:43:59.037Z,101600.56
2022-10-18T19:46:26.639Z,101612.06
2022-10-18T19:48:54.462Z,101605.03
2022-10-18T19:51:22.957Z,101593.56
2022-10-18T19:53:52.904Z,101602.38
2022-10-18T19:56:23.399Z,101586.53
2022-10-18T19:58:51.167Z,101578.63
2022-10-18T20:01:18.997Z,101574.22
2022-10-18T20:03:50.124Z,101602.38
2022-10-18T20:06:17.541Z,101590.94
2022-10-18T20:08:44.840Z,101578.63
2022-10-18T20:11:15.541Z,101582.16
2022-10-18T20:13:42.720Z,101590.09
2022-10-18T20:16:11.275Z,101576.91
2022-10-18T20:18:38.934Z,101580.44
2022-10-18T20:21:07.559Z,101590.16
2022-10-18T20:23:39.522Z,101591.91
2022-10-18T20:26:17.985Z,101575.13
2022-10-18T20:28:49.409Z,101598.97
2022-10-18T20:31:18.083Z,101601.63
2022-10-18T20:33:47.057Z,101581.31
2022-10-18T20:36:16.443Z,101598.09
2022-10-18T20:38:45.475Z,101594.56
2022-10-18T20:41:15.120Z,101572.53
2022-10-18T20:43:43.323Z,101588.38
2022-10-18T20:46:10.994Z,101580.44
2022-10-18T20:48:39.110Z,101582.19
2022-10-18T20:51:09.467Z,101593.63
2022-10-18T20:53:37.528Z,101587.50
2022-10-18T20:56:07.948Z,101594.56
2022-10-18T20:58:36.993Z,101588.31
2022-10-18T21:01:11.905Z,101598.00
2022-10-18T21:03:41.834Z,101583.03
2022-10-18T21:06:13.904Z,101603.34
2022-10-18T21:08:41.719Z,101610.41
2022-10-18T21:11:10.441Z,101608.66
2022-10-18T21:13:38.195Z,101600.75
2022-10-18T21:16:05.994Z,101618.34
2022-10-18T21:18:35.147Z,101617.50
2022-10-18T21:21:28.668Z,101620.16
2022-10-18T21:23:55.701Z,101625.44
2022-10-18T21:26:25.349Z,101626.34
2022-10-18T21:28:54.619Z,101603.38
2022-10-18T21:31:24.028Z,101616.59
2022-10-18T21:34:03.237Z,101612.22
2022-10-18T21:36:32.371Z,101603.38
2022-10-18T21:38:59.458Z,101611.31
2022-10-18T21:41:26.820Z,101586.63
2022-10-18T21:43:55.348Z,101585.78
2022-10-18T21:46:24.017Z,101619.28
2022-10-18T21:48:53.172Z,101614.00
2022-10-18T21:51:22.533Z,101621.06
2022-10-18T21:53:51.697Z,101618.44
2022-10-18T21:56:26.211Z,101594.59
2022-10-18T21:58:53.527Z,101610.47
2022-10-18T22:01:22.176Z,101612.25
2022-10-18T22:03:51.768Z,101617.53
2022-10-18T22:06:19.679Z,101619.28
2022-10-18T22:08:51.724Z,101613.16
2022-10-18T22:11:21.732Z,101606.94
2022-10-18T22:13:52.496Z,101608.72
2022-10-18T22:16:19.867Z,101598.13
2022-10-18T22:18:48.588Z,101595.50
2022-10-18T22:21:18.369Z,101570.81
2022-10-18T22:23:48.059Z,101599.91
2022-10-18T22:26:22.561Z,101582.28
2022-10-18T22:28:56.398Z,101575.22
2022-10-18T22:31:27.126Z,101597.28
2022-10-18T22:33:58.782Z,101589.31
2022-10-18T22:36:26.513Z,101589.31
2022-10-18T22:38:53.786Z,101585.81
2022-10-18T22:41:20.847Z,101589.31
2022-10-18T22:43:49.988Z,101582.28
2022-10-18T22:46:17.770Z,101555.84
2022-10-18T22:48:45.330Z,101577.88
2022-10-18T22:51:12.734Z,101562.00
2022-10-18T22:53:40.579Z,101555.78
2022-10-18T22:56:10.110Z,101555.84
2022-10-18T22:58:37.167Z,101579.63
